Terminal Aerodrome Forecast
Issued by NWS

Home | Current Version | Previous Version | Text Only | Print | Product List | Glossary On
Versions: 1 2 3 4 5 6 7 8 9 10 11 12 13 14 15 16 17 18 19 20
000
FTUS43 KILX 272300 RRA
TAFDEC
TAF
KDEC 272345Z 2800/2824 30009KT P6SM -RASN OVC008
     FM280200 31006KT P6SM OVC015
     FM281000 31006KT P6SM SCT020 BKN120=

USA.gov is the U.S. government's official web portal to all federal, state and local government web resources and services.